Time;durP1;ratioP1;P1;durP2;ratioP2;P2;SDS_P1;SDS_P2;PMS_P1;PMS_P2;Temp;Humidity;BMP_temperature;BMP_pressure;BME280_temperature;BME280_humidity;BME280_pressure;Samples;Min_cycle;Max_cycle;Signal;HPM_P1;HPM_P2
2023/10/24 00:00:02;;;;;;;11.13;4.80;;;;;;;14.62;64.14;95087.38;5037591;28;20247;-75
2023/10/24 00:02:30;;;;;;;10.02;4.72;;;;;;;14.59;64.16;95094.47;5037447;28;20236;-75
2023/10/24 00:04:59;;;;;;;11.05;4.88;;;;;;;14.58;64.35;95101.22;5037193;28;20201;-75
2023/10/24 00:07:27;;;;;;;8.95;4.47;;;;;;;14.56;64.23;95098.03;5036807;28;20293;-75
2023/10/24 00:09:54;;;;;;;9.93;4.97;;;;;;;14.54;64.15;95096.78;5037156;28;20194;-75
2023/10/24 00:12:23;;;;;;;8.32;5.53;;;;;;;14.51;64.55;95090.00;5036970;28;20193;-75
2023/10/24 00:14:50;;;;;;;10.63;5.15;;;;;;;14.51;64.44;95092.78;5037214;28;20206;-74
2023/10/24 00:17:17;;;;;;;10.10;5.50;;;;;;;14.51;64.39;95087.25;5053950;28;20580;-75
2023/10/24 00:19:44;;;;;;;8.23;5.13;;;;;;;14.53;64.09;95090.44;5036647;28;20234;-75
2023/10/24 00:22:13;;;;;;;10.88;5.35;;;;;;;14.48;64.23;95087.97;5054189;28;20178;-75
2023/10/24 00:24:40;;;;;;;12.43;6.13;;;;;;;14.44;64.01;95090.69;5036861;28;20189;-74
2023/10/24 00:27:11;;;;;;;12.73;5.60;;;;;;;14.41;64.06;95080.34;5054052;28;20201;-74
2023/10/24 00:29:39;;;;;;;9.25;5.47;;;;;;;14.38;64.30;95080.31;5037431;28;20198;-74
2023/10/24 00:32:07;;;;;;;9.20;5.18;;;;;;;14.33;64.09;95084.22;5054002;28;20189;-74
2023/10/24 00:34:34;;;;;;;8.38;5.20;;;;;;;14.28;64.54;95083.75;5036640;28;20232;-74
2023/10/24 00:37:02;;;;;;;11.75;5.40;;;;;;;14.25;64.51;95081.72;5053942;28;20197;-74
2023/10/24 00:39:30;;;;;;;11.05;5.63;;;;;;;14.21;64.52;95082.47;5036221;28;20194;-74
2023/10/24 00:41:59;;;;;;;10.73;5.40;;;;;;;14.15;64.70;95083.97;5054604;28;20569;-74
2023/10/24 00:44:27;;;;;;;11.75;5.30;;;;;;;14.15;64.51;95089.50;5036961;28;20193;-74
2023/10/24 00:46:55;;;;;;;9.70;5.07;;;;;;;14.15;65.04;95081.19;5036665;28;20267;-74
2023/10/24 00:49:22;;;;;;;11.98;4.68;;;;;;;14.13;64.80;95083.56;5056921;28;20284;-75
2023/10/24 00:51:50;;;;;;;10.32;5.13;;;;;;;14.14;64.89;95089.91;5057257;28;20189;-75
2023/10/24 00:54:17;;;;;;;11.57;5.00;;;;;;;14.12;64.77;95084.72;5039942;28;20213;-75
2023/10/24 00:56:51;;;;;;;9.15;4.53;;;;;;;14.11;64.91;95087.88;4478598;28;15286730;-76
2023/10/24 00:59:18;;;;;;;9.82;4.60;;;;;;;14.09;64.94;95091.03;5018735;28;20187;-76
2023/10/24 01:01:46;;;;;;;10.07;5.22;;;;;;;14.09;64.83;95084.66;5018789;28;20591;-75
2023/10/24 01:04:13;;;;;;;11.90;4.88;;;;;;;14.12;65.15;95089.47;5017551;28;20205;-75
2023/10/24 01:06:43;;;;;;;8.68;4.82;;;;;;;14.11;64.55;95080.34;5018674;28;20187;-75
2023/10/24 01:09:11;;;;;;;12.07;5.15;;;;;;;14.09;64.90;95081.91;5018720;28;20191;-74
2023/10/24 01:11:39;;;;;;;10.50;4.80;;;;;;;14.07;64.85;95078.72;5018096;28;20206;-74
2023/10/24 01:14:07;;;;;;;7.38;4.95;;;;;;;14.02;64.98;95082.63;5018720;28;20203;-74
2023/10/24 01:16:41;;;;;;;9.45;5.13;;;;;;;13.93;65.11;95087.63;5018027;28;20199;-74
2023/10/24 01:19:08;;;;;;;10.43;4.97;;;;;;;13.87;65.11;95084.38;5017875;28;20198;-74
2023/10/24 01:21:36;;;;;;;12.95;5.65;;;;;;;13.81;65.15;95088.66;5017583;28;20187;-74
2023/10/24 01:24:07;;;;;;;8.65;4.80;;;;;;;13.82;64.89;95081.13;5018347;28;20504;-74
2023/10/24 01:26:35;;;;;;;12.18;5.25;;;;;;;13.78;65.02;95083.03;5018264;28;20203;-74
2023/10/24 01:29:02;;;;;;;11.90;5.60;;;;;;;13.77;65.09;95081.47;5017976;28;20210;-74
2023/10/24 01:31:30;;;;;;;11.10;5.07;;;;;;;13.71;64.99;95089.28;5018426;28;20184;-74
2023/10/24 01:33:56;;;;;;;9.60;4.80;;;;;;;13.65;65.19;95080.50;5018064;28;20265;-74
2023/10/24 01:36:25;;;;;;;8.43;4.53;;;;;;;13.66;65.45;95070.19;5018125;28;20250;-74
2023/10/24 01:38:52;;;;;;;8.23;4.57;;;;;;;13.61;65.19;95067.72;5018284;28;20222;-74
2023/10/24 01:41:20;;;;;;;9.95;5.25;;;;;;;13.57;65.29;95077.97;5017897;28;20199;-74
2023/10/24 01:43:47;;;;;;;8.55;5.13;;;;;;;13.52;65.51;95072.75;5017899;28;20194;-74
2023/10/24 01:46:16;;;;;;;11.23;5.07;;;;;;;13.52;65.80;95069.97;5017578;28;20191;-74
2023/10/24 01:48:43;;;;;;;10.55;4.68;;;;;;;13.53;65.74;95075.13;5017271;28;20207;-74
2023/10/24 01:51:13;;;;;;;9.98;5.75;;;;;;;13.56;65.48;95073.59;5017843;28;20191;-75
2023/10/24 01:53:40;;;;;;;7.05;5.30;;;;;;;13.57;65.64;95076.00;5017850;28;20312;-74
2023/10/24 01:56:13;;;;;;;9.98;4.72;;;;;;;13.56;65.74;95076.38;5016481;28;20673;-74
2023/10/24 01:58:41;;;;;;;9.32;4.90;;;;;;;13.56;65.48;95073.59;5016789;28;20199;-74
2023/10/24 02:01:09;;;;;;;11.68;5.00;;;;;;;13.53;65.50;95079.88;5017328;28;20211;-74
2023/10/24 02:03:36;;;;;;;10.30;4.85;;;;;;;13.48;65.42;95076.25;5016635;28;20611;-74
2023/10/24 02:06:03;;;;;;;8.82;4.68;;;;;;;13.44;65.64;95072.63;5017284;28;20202;-74
2023/10/24 02:08:29;;;;;;;8.10;5.03;;;;;;;13.42;65.67;95069.41;5017183;28;20585;-74
2023/10/24 02:10:58;;;;;;;7.78;4.60;;;;;;;13.39;65.64;95069.38;5017457;28;20191;-74
2023/10/24 02:13:25;;;;;;;8.95;5.05;;;;;;;13.38;65.76;95060.25;5016967;28;20214;-74
2023/10/24 02:16:00;;;;;;;8.75;4.93;;;;;;;13.34;65.80;95073.25;5016942;28;20207;-74
2023/10/24 02:18:27;;;;;;;12.15;4.43;;;;;;;13.33;65.77;95070.88;5016745;28;20211;-75
2023/10/24 02:20:53;;;;;;;11.35;4.45;;;;;;;13.30;65.89;95066.06;5016248;28;20219;-75
2023/10/24 02:23:20;;;;;;;10.73;4.68;;;;;;;13.28;65.76;95062.84;5017048;28;20238;-75
2023/10/24 02:25:48;;;;;;;8.10;5.18;;;;;;;13.28;66.09;95071.97;5017281;28;20241;-75
2023/10/24 02:28:14;;;;;;;9.52;4.57;;;;;;;13.25;66.14;95072.69;5017187;28;20576;-75
2023/10/24 02:30:42;;;;;;;8.15;4.57;;;;;;;13.21;65.80;95069.81;5016854;28;20203;-75
2023/10/24 02:33:10;;;;;;;8.20;5.05;;;;;;;13.11;65.62;95070.47;5017175;28;20608;-75
2023/10/24 02:35:38;;;;;;;13.27;5.65;;;;;;;13.01;66.26;95068.31;5015873;28;20210;-75
2023/10/24 02:38:06;;;;;;;8.07;4.55;;;;;;;12.99;66.21;95068.66;5016960;28;20195;-75
2023/10/24 02:40:34;;;;;;;14.40;5.03;;;;;;;12.94;65.98;95076.47;5016044;28;20198;-72
2023/10/24 02:43:01;;;;;;;11.57;5.30;;;;;;;12.94;66.44;95080.06;5017048;28;20234;-76
2023/10/24 02:45:29;;;;;;;9.88;4.80;;;;;;;12.95;66.23;95084.41;5017144;28;20195;-77
2023/10/24 02:47:55;;;;;;;12.18;4.43;;;;;;;12.94;66.21;95088.34;5015441;28;20214;-75
2023/10/24 02:50:24;;;;;;;9.00;4.75;;;;;;;12.97;66.59;95086.81;5016339;28;20195;-76
2023/10/24 02:52:51;;;;;;;9.70;5.15;;;;;;;12.96;66.23;95080.50;5015507;28;20646;-75
2023/10/24 02:55:19;;;;;;;11.20;4.88;;;;;;;12.98;66.50;95089.22;5015767;28;20550;-75
2023/10/24 02:57:47;;;;;;;8.48;4.50;;;;;;;13.00;66.44;95095.19;5000093;28;20199;-75
2023/10/24 03:00:16;;;;;;;8.43;4.75;;;;;;;13.03;66.55;95093.63;5015288;28;20619;-75
2023/10/24 03:02:43;;;;;;;8.35;4.47;;;;;;;13.04;66.06;95095.25;5016534;28;20200;-76
2023/10/24 03:05:11;;;;;;;6.25;4.50;;;;;;;13.02;66.05;95100.34;5016226;28;20599;-76
2023/10/24 03:07:39;;;;;;;9.30;4.85;;;;;;;12.99;66.01;95106.63;5015580;28;20205;-76
2023/10/24 03:10:08;;;;;;;8.65;4.90;;;;;;;12.98;66.36;95097.53;5016029;28;20218;-76
2023/10/24 03:12:34;;;;;;;8.82;4.45;;;;;;;12.99;66.33;95103.84;5015987;28;20191;-75
2023/10/24 03:15:02;;;;;;;6.63;4.35;;;;;;;12.98;66.58;95111.38;5015994;28;20204;-74
2023/10/24 03:17:29;;;;;;;8.60;4.43;;;;;;;12.98;66.63;95105.81;5015070;28;20230;-74
2023/10/24 03:19:57;;;;;;;7.72;4.10;;;;;;;12.97;66.66;95107.00;5015582;28;20199;-74
2023/10/24 03:22:24;;;;;;;7.20;4.82;;;;;;;12.94;66.44;95109.72;5015643;28;20520;-74
2023/10/24 03:24:52;;;;;;;8.07;5.07;;;;;;;12.89;66.55;95113.59;5015324;28;20203;-74
2023/10/24 03:27:19;;;;;;;8.88;4.75;;;;;;;12.84;66.46;95118.59;5014911;28;20198;-74
2023/10/24 03:29:46;;;;;;;9.40;5.05;;;;;;;12.79;66.21;95125.25;5015396;28;20206;-74
2023/10/24 03:32:13;;;;;;;10.02;5.03;;;;;;;12.77;66.61;95113.72;5015323;28;20202;-75
2023/10/24 03:34:43;;;;;;;7.40;3.95;;;;;;;12.78;66.24;95123.63;5015252;28;20218;-76
2023/10/24 03:37:10;;;;;;;9.25;4.40;;;;;;;12.79;65.93;95118.91;5015845;28;20195;-69
2023/10/24 03:39:37;;;;;;;7.32;4.80;;;;;;;12.74;66.07;95123.59;5015545;28;20261;-69
2023/10/24 03:42:06;;;;;;;10.90;4.82;;;;;;;12.72;66.43;95119.56;5016066;28;20180;-69
2023/10/24 03:44:34;;;;;;;8.13;4.32;;;;;;;12.67;66.44;95117.06;5015801;28;20188;-70
2023/10/24 03:47:00;;;;;;;10.27;4.40;;;;;;;12.66;66.53;95129.31;5015826;28;20191;-70
2023/10/24 03:49:28;;;;;;;12.63;5.05;;;;;;;12.63;66.67;95125.31;5016051;28;20511;-70
2023/10/24 03:51:55;;;;;;;12.40;5.25;;;;;;;12.60;66.66;95128.00;5015303;28;20199;-70
2023/10/24 03:54:23;;;;;;;11.02;5.22;;;;;;;12.47;66.30;95138.44;5015296;28;20540;-71
2023/10/24 03:56:50;;;;;;;9.77;5.03;;;;;;;12.41;66.77;95131.56;5053683;28;20241;-72
2023/10/24 03:59:23;;;;;;;11.00;5.28;;;;;;;12.36;67.12;95135.44;5037370;28;20625;-71
2023/10/24 04:01:49;;;;;;;10.45;4.95;;;;;;;12.35;67.00;95139.38;5055218;28;20190;-71
2023/10/24 04:04:17;;;;;;;11.75;6.25;;;;;;;12.35;67.38;95139.38;5038356;28;20185;-71
2023/10/24 04:06:44;;;;;;;9.88;4.90;;;;;;;12.37;67.75;95134.25;5038473;28;20189;-71
2023/10/24 04:09:12;;;;;;;10.07;5.10;;;;;;;12.43;67.64;95138.34;5055160;28;20186;-71
2023/10/24 04:11:39;;;;;;;10.70;5.05;;;;;;;12.50;67.56;95132.16;5055175;28;20181;-71
2023/10/24 04:14:08;;;;;;;10.13;4.88;;;;;;;12.53;67.17;95139.75;5054981;28;20212;-69
2023/10/24 04:16:36;;;;;;;12.07;6.32;;;;;;;12.50;67.07;95135.72;5055036;28;20186;-69
2023/10/24 04:19:04;;;;;;;12.18;6.60;;;;;;;12.46;67.43;95139.59;5055081;28;20202;-70
2023/10/24 04:21:30;;;;;;;12.32;7.68;;;;;;;12.47;67.51;95142.00;5054995;28;20193;-69
2023/10/24 04:23:59;;;;;;;15.93;8.60;;;;;;;12.46;66.95;95140.41;5039966;28;20190;-68
2023/10/24 04:26:26;;;;;;;12.23;7.38;;;;;;;12.44;67.23;95139.16;5059358;28;20186;-72
2023/10/24 04:28:55;;;;;;;13.70;7.57;;;;;;;12.38;67.04;95144.19;5042239;28;20194;-69
2023/10/24 04:31:21;;;;;;;15.00;7.63;;;;;;;12.34;67.44;95143.28;5041739;28;20236;-69
2023/10/24 04:33:51;;;;;;;14.15;7.97;;;;;;;12.35;67.68;95142.13;5041770;28;20205;-69
2023/10/24 04:36:18;;;;;;;16.55;8.80;;;;;;;12.34;67.61;95148.00;5042253;28;20502;-69
2023/10/24 04:38:46;;;;;;;13.85;7.65;;;;;;;12.31;67.75;95154.25;5041928;28;20197;-69
2023/10/24 04:41:13;;;;;;;11.02;7.03;;;;;;;12.28;67.86;95158.56;5041153;28;20190;-69
2023/10/24 04:43:41;;;;;;;13.23;7.13;;;;;;;12.33;68.06;95157.47;5059128;28;20190;-68
2023/10/24 04:46:09;;;;;;;11.15;6.40;;;;;;;12.35;67.81;95160.69;5058897;28;20271;-68
2023/10/24 04:48:37;;;;;;;15.30;7.45;;;;;;;12.36;67.41;95170.59;5041550;28;20212;-68
2023/10/24 04:51:13;;;;;;;14.57;7.25;;;;;;;12.31;67.96;95163.38;5058687;28;20217;-69
2023/10/24 04:53:41;;;;;;;12.88;6.65;;;;;;;12.32;67.73;95162.22;5041372;28;20201;-69
2023/10/24 04:56:08;;;;;;;16.45;8.18;;;;;;;12.32;67.72;95170.50;5058843;28;20248;-72
2023/10/24 04:58:37;;;;;;;18.27;7.97;;;;;;;12.33;67.55;95171.31;5041052;28;20193;-69
2023/10/24 05:01:03;;;;;;;18.55;8.82;;;;;;;12.28;67.89;95175.97;5041816;28;20217;-72
2023/10/24 05:03:34;;;;;;;18.50;8.45;;;;;;;12.29;67.90;95179.53;5059205;28;20190;-72
2023/10/24 05:06:01;;;;;;;15.75;7.78;;;;;;;12.29;67.76;95177.56;5059201;28;20201;-74
2023/10/24 05:08:29;;;;;;;16.15;7.88;;;;;;;12.34;67.95;95182.00;5041955;28;20202;-77
2023/10/24 05:10:56;;;;;;;14.23;7.68;;;;;;;12.33;67.79;95182.38;5059890;28;20208;-76
2023/10/24 05:13:24;;;;;;;18.67;7.70;;;;;;;12.25;67.54;95184.97;5042070;28;20298;-74
2023/10/24 05:15:51;;;;;;;17.40;7.57;;;;;;;12.23;68.42;95184.53;5041040;28;20241;-75
2023/10/24 05:18:17;;;;;;;18.63;8.23;;;;;;;12.27;68.12;95190.13;5040990;28;20536;-74
2023/10/24 05:20:45;;;;;;;14.88;7.50;;;;;;;12.32;67.76;95200.13;5040971;28;20210;-74
2023/10/24 05:23:13;;;;;;;15.65;7.78;;;;;;;12.33;68.03;95199.75;5041265;28;20190;-74
2023/10/24 05:25:43;;;;;;;19.23;8.82;;;;;;;12.31;68.49;95195.75;5041079;28;20209;-74
2023/10/24 05:28:12;;;;;;;15.57;7.82;;;;;;;12.27;68.47;95192.91;5058330;28;20202;-74
2023/10/24 05:30:39;;;;;;;16.48;7.28;;;;;;;12.22;68.30;95191.22;5040936;28;20501;-75
2023/10/24 05:33:07;;;;;;;14.52;7.70;;;;;;;12.22;68.64;95210.59;5041025;28;20197;-73
2023/10/24 05:35:34;;;;;;;16.05;7.45;;;;;;;12.28;68.61;95200.06;5039834;28;20227;-74
2023/10/24 05:38:02;;;;;;;13.35;7.05;;;;;;;12.33;68.76;95208.06;5058366;28;20216;-74
2023/10/24 05:40:30;;;;;;;20.30;8.15;;;;;;;12.38;68.76;95210.56;5040262;28;20201;-74
2023/10/24 05:42:59;;;;;;;15.77;7.13;;;;;;;12.40;68.67;95213.75;5041201;28;20300;-73
2023/10/24 05:45:26;;;;;;;14.88;7.45;;;;;;;12.44;69.17;95214.63;5041031;28;20197;-75
2023/10/24 05:47:54;;;;;;;13.90;7.05;;;;;;;12.48;69.43;95215.50;5058083;28;20182;-75
2023/10/24 05:50:21;;;;;;;12.63;6.85;;;;;;;12.52;69.23;95221.13;5058039;28;20193;-74
2023/10/24 05:52:49;;;;;;;15.13;6.65;;;;;;;12.53;69.32;95220.78;5041682;28;20201;-74
2023/10/24 05:55:16;;;;;;;14.27;7.07;;;;;;;12.62;69.51;95214.22;5031506;28;20269;-74
2023/10/24 05:57:44;;;;;;;15.70;6.88;;;;;;;12.66;70.02;95212.34;5017876;28;20187;-73
2023/10/24 06:00:13;;;;;;;16.98;7.25;;;;;;;12.71;69.79;95215.63;5018258;28;20187;-76
2023/10/24 06:02:41;;;;;;;14.30;8.13;;;;;;;12.76;69.55;95203.47;5018252;28;20195;-73
2023/10/24 06:05:08;;;;;;;16.02;8.48;;;;;;;12.82;69.78;95206.72;5018328;28;20195;-73
2023/10/24 06:07:36;;;;;;;11.98;6.70;;;;;;;12.88;70.19;95210.81;5017787;28;20183;-72
2023/10/24 06:10:04;;;;;;;13.43;6.68;;;;;;;12.91;70.46;95221.16;5017448;28;20179;-72
2023/10/24 06:12:31;;;;;;;14.57;7.22;;;;;;;12.94;70.54;95214.91;5018123;28;20192;-73
2023/10/24 06:14:58;;;;;;;15.65;6.90;;;;;;;13.00;70.70;95216.22;5016950;28;20215;-74
2023/10/24 06:17:26;;;;;;;15.73;7.65;;;;;;;13.05;70.69;95224.22;5017270;28;20265;-74
2023/10/24 06:19:53;;;;;;;15.73;7.10;;;;;;;13.10;70.75;95223.13;5016806;28;20206;-75
2023/10/24 06:22:24;;;;;;;12.82;7.28;;;;;;;13.14;70.74;95212.91;5017015;28;20424;-68
2023/10/24 06:24:51;;;;;;;11.85;7.03;;;;;;;13.20;70.63;95217.00;5017512;28;20242;-69
2023/10/24 06:27:18;;;;;;;12.73;7.65;;;;;;;13.27;69.97;95202.53;5016508;28;20627;-69
2023/10/24 06:29:45;;;;;;;17.08;7.72;;;;;;;13.36;69.36;95214.97;5017269;28;20642;-69
2023/10/24 06:32:13;;;;;;;11.18;7.70;;;;;;;13.41;69.38;95211.91;5017659;28;20200;-68
2023/10/24 06:34:41;;;;;;;15.38;7.80;;;;;;;13.44;68.78;95210.38;5016789;28;20550;-69
2023/10/24 06:37:09;;;;;;;10.10;7.00;;;;;;;13.46;68.79;95213.56;5017240;28;20214;-69
2023/10/24 06:39:36;;;;;;;14.00;7.22;;;;;;;13.53;68.62;95210.91;5016798;28;20191;-69
2023/10/24 06:42:05;;;;;;;15.00;7.57;;;;;;;13.63;68.63;95213.09;5016833;28;20247;-69
2023/10/24 06:44:32;;;;;;;12.55;7.35;;;;;;;13.69;68.69;95214.38;5017011;28;20206;-69
2023/10/24 06:47:00;;;;;;;13.85;7.68;;;;;;;13.77;68.33;95206.19;5015787;28;20188;-69
2023/10/24 06:49:26;;;;;;;14.43;7.93;;;;;;;13.86;68.34;95196.44;5016664;28;20207;-69
2023/10/24 06:51:56;;;;;;;13.60;8.38;;;;;;;13.95;68.29;95210.06;5016733;28;20211;-69
2023/10/24 06:54:23;;;;;;;16.92;8.35;;;;;;;14.02;67.95;95204.63;5016587;28;20187;-69
2023/10/24 06:56:51;;;;;;;16.20;8.43;;;;;;;14.11;67.86;95202.38;5053556;28;20234;-69
2023/10/24 06:59:17;;;;;;;14.80;8.35;;;;;;;14.18;67.47;95207.25;5056564;28;20186;-68
2023/10/24 07:01:45;;;;;;;14.80;8.20;;;;;;;14.24;67.28;95197.44;5039102;28;20194;-70
2023/10/24 07:04:12;;;;;;;13.02;7.90;;;;;;;14.29;67.42;95199.88;5056647;28;20182;-69
2023/10/24 07:06:42;;;;;;;15.07;8.20;;;;;;;14.38;67.15;95194.09;5038490;28;20204;-69
2023/10/24 07:09:11;;;;;;;11.15;7.28;;;;;;;14.45;67.10;95185.84;5056205;28;20640;-69
2023/10/24 07:11:41;;;;;;;16.63;8.52;;;;;;;14.53;66.82;95186.78;5056181;28;20213;-68
2023/10/24 07:14:07;;;;;;;16.73;8.60;;;;;;;14.66;66.68;95190.91;5055946;28;20200;-69
2023/10/24 07:16:35;;;;;;;13.70;7.45;;;;;;;14.78;66.42;95178.78;5055853;28;20220;-69
2023/10/24 07:19:02;;;;;;;14.32;7.60;;;;;;;14.85;65.87;95182.47;5039080;28;20190;-69
2023/10/24 07:21:30;;;;;;;13.38;8.18;;;;;;;14.90;65.30;95184.91;5039036;28;20512;-68
2023/10/24 07:23:58;;;;;;;13.38;7.13;;;;;;;14.99;65.48;95179.03;5056265;28;20182;-67
2023/10/24 07:26:31;;;;;;;15.90;7.95;;;;;;;15.06;65.47;95176.34;5056058;28;20243;-68
2023/10/24 07:28:59;;;;;;;14.05;8.85;;;;;;;15.14;65.32;95180.81;5039287;28;20190;-69
2023/10/24 07:31:27;;;;;;;18.45;9.80;;;;;;;15.23;65.30;95171.38;5039149;28;20204;-69
2023/10/24 07:33:54;;;;;;;16.13;9.52;;;;;;;15.30;65.59;95168.69;5055938;28;20182;-68
2023/10/24 07:36:23;;;;;;;14.98;8.95;;;;;;;15.36;65.36;95173.53;5055741;28;20202;-72
2023/10/24 07:38:49;;;;;;;17.35;9.75;;;;;;;15.45;65.12;95164.88;5055791;28;20193;-72
2023/10/24 07:41:19;;;;;;;16.63;11.52;;;;;;;15.54;64.46;95170.94;5056487;28;20185;-73
2023/10/24 07:43:47;;;;;;;18.67;12.55;;;;;;;15.61;63.88;95167.38;5038800;28;20195;-72
2023/10/24 07:46:18;;;;;;;16.08;11.13;;;;;;;15.69;64.05;95166.31;5038349;28;20198;-73
2023/10/24 07:48:49;;;;;;;18.70;9.43;;;;;;;15.73;63.20;95160.78;5038160;28;20197;-73
2023/10/24 07:51:16;;;;;;;13.98;9.77;;;;;;;15.79;63.14;95164.81;5055731;28;20632;-72
2023/10/24 07:53:44;;;;;;;13.40;8.95;;;;;;;15.85;62.88;95152.16;5055877;28;20186;-72
2023/10/24 07:56:11;;;;;;;14.55;9.32;;;;;;;15.94;62.42;95146.25;5021577;28;20249;-72
2023/10/24 07:58:38;;;;;;;15.00;10.23;;;;;;;16.01;62.53;95149.91;5015968;28;20180;-73
2023/10/24 08:01:11;;;;;;;17.80;10.55;;;;;;;16.13;62.28;95152.38;5015481;28;20218;-73
2023/10/24 08:03:37;;;;;;;15.93;9.88;;;;;;;16.25;61.98;95151.25;5016483;28;20214;-77
2023/10/24 08:06:06;;;;;;;14.32;9.77;;;;;;;16.40;61.86;95151.34;5014874;28;20544;-78
2023/10/24 08:08:33;;;;;;;16.73;9.82;;;;;;;16.49;61.17;95157.38;5015224;28;20199;-73
2023/10/24 08:11:03;;;;;;;19.45;10.10;;;;;;;16.57;60.79;95154.22;5016286;28;20202;-75
2023/10/24 08:13:29;;;;;;;14.15;9.25;;;;;;;16.63;60.50;95154.66;5015714;28;20214;-75
2023/10/24 08:15:58;;;;;;;19.92;10.80;;;;;;;16.73;60.68;95159.47;5015457;28;20222;-74
2023/10/24 08:18:26;;;;;;;18.50;11.48;;;;;;;16.81;59.98;95154.75;5016029;28;20187;-75
2023/10/24 08:20:55;;;;;;;15.88;10.73;;;;;;;16.81;59.67;95149.19;5015896;28;20191;-74
2023/10/24 08:23:22;;;;;;;19.95;11.52;;;;;;;16.88;60.03;95143.66;5015716;28;20237;-74
2023/10/24 08:25:50;;;;;;;19.90;11.85;;;;;;;17.00;59.22;95140.53;5015200;28;20522;-76
2023/10/24 08:28:16;;;;;;;16.40;11.93;;;;;;;17.08;59.33;95139.34;5015054;28;20199;-75
2023/10/24 08:30:43;;;;;;;14.63;11.48;;;;;;;17.19;59.12;95133.03;5015373;28;20207;-75
2023/10/24 08:33:10;;;;;;;18.15;11.73;;;;;;;17.29;58.59;95130.28;5015436;28;20530;-75
2023/10/24 08:35:42;;;;;;;17.73;11.80;;;;;;;17.38;57.54;95126.28;5015831;28;20273;-73
2023/10/24 08:38:09;;;;;;;18.70;11.07;;;;;;;17.43;57.53;95129.50;5015534;28;20199;-74
2023/10/24 08:40:37;;;;;;;17.70;9.43;;;;;;;17.46;56.14;95119.53;5016209;28;20558;-73
2023/10/24 08:43:04;;;;;;;16.30;9.80;;;;;;;17.48;56.01;95115.16;5014712;28;20210;-73
2023/10/24 08:45:33;;;;;;;19.60;9.10;;;;;;;17.62;56.17;95113.59;5015837;28;20202;-75
2023/10/24 08:48:01;;;;;;;15.60;9.23;;;;;;;17.71;55.20;95111.19;5015334;28;20179;-74
2023/10/24 08:50:29;;;;;;;13.30;8.07;;;;;;;17.70;53.94;95104.81;5014876;28;20203;-75
2023/10/24 08:52:57;;;;;;;13.27;7.40;;;;;;;17.75;54.50;95107.22;5015874;28;20195;-75
2023/10/24 08:55:27;;;;;;;16.42;7.90;;;;;;;17.80;53.84;95109.63;5028797;28;20249;-76
2023/10/24 08:57:58;;;;;;;14.75;7.25;;;;;;;17.86;54.63;95115.59;5054852;28;20625;-77
2023/10/24 09:00:28;;;;;;;13.57;7.60;;;;;;;17.87;53.71;95108.06;5038217;28;20239;-76
2023/10/24 09:02:55;;;;;;;16.48;7.95;;;;;;;17.86;53.44;95100.84;5037414;28;20209;-76
2023/10/24 09:05:27;;;;;;;12.13;7.28;;;;;;;17.88;54.05;95090.91;5037692;28;20610;-77
2023/10/24 09:07:56;;;;;;;14.82;8.35;;;;;;;17.94;53.67;95088.53;5055356;28;20190;-78
2023/10/24 09:10:26;;;;;;;12.05;6.93;;;;;;;17.95;53.61;95085.31;5040954;28;20247;-75
2023/10/24 09:12:54;;;;;;;13.68;7.60;;;;;;;18.00;53.86;95076.53;5059020;28;20193;-76
2023/10/24 09:15:24;;;;;;;16.20;7.85;;;;;;;18.07;53.85;95081.31;5059109;28;20248;-77
2023/10/24 09:17:55;;;;;;;13.18;7.43;;;;;;;18.10;53.49;95077.72;5041252;28;20201;-76
2023/10/24 09:20:25;;;;;;;11.07;7.30;;;;;;;18.13;53.05;95079.72;5058749;28;20198;-75
2023/10/24 09:22:55;;;;;;;14.95;7.47;;;;;;;18.14;52.72;95069.34;5040825;28;20200;-73
2023/10/24 09:25:26;;;;;;;18.92;7.47;;;;;;;18.19;53.42;95077.28;5058903;28;20193;-75
2023/10/24 09:27:54;;;;;;;15.95;8.38;;;;;;;18.26;53.26;95078.09;5042842;28;20208;-75
2023/10/24 09:30:23;;;;;;;14.40;8.50;;;;;;;18.40;52.94;95084.81;5059827;28;20182;-75
2023/10/24 09:32:51;;;;;;;15.30;8.57;;;;;;;18.50;52.83;95073.63;5043232;28;20208;-75
2023/10/24 09:35:20;;;;;;;15.75;9.10;;;;;;;18.64;52.51;95074.78;5042241;28;20660;-75
2023/10/24 09:37:48;;;;;;;12.82;8.35;;;;;;;18.76;51.37;95072.34;5043638;28;20213;-75
2023/10/24 09:40:16;;;;;;;15.10;9.10;;;;;;;18.89;51.29;95069.91;5043340;28;20198;-75
2023/10/24 09:42:43;;;;;;;17.52;8.98;;;;;;;19.00;51.28;95059.47;5043650;28;20237;-75
2023/10/24 09:45:14;;;;;;;15.30;9.60;;;;;;;19.14;51.36;95055.00;5059069;28;20182;-75
2023/10/24 09:47:42;;;;;;;15.73;10.02;;;;;;;19.23;51.04;95058.94;5042289;28;20263;-75
2023/10/24 09:50:10;;;;;;;18.85;10.63;;;;;;;19.34;50.78;95053.28;5042130;28;20201;-74
2023/10/24 09:52:37;;;;;;;16.88;9.88;;;;;;;19.41;50.47;95053.22;5058062;28;20264;-72
2023/10/24 09:55:05;;;;;;;15.32;8.45;;;;;;;19.42;50.00;95049.22;5033910;28;20247;-73
2023/10/24 09:57:33;;;;;;;15.02;9.98;;;;;;;19.43;50.12;95048.03;5018535;28;20207;-74
2023/10/24 10:00:03;;;;;;;15.95;8.95;;;;;;;19.50;50.40;95036.00;5017531;28;20208;-74
2023/10/24 10:02:31;;;;;;;15.60;9.07;;;;;;;19.61;50.02;95044.31;5017212;28;20205;-74
2023/10/24 10:05:00;;;;;;;17.75;8.90;;;;;;;19.68;49.59;95038.66;5017105;28;20198;-73
2023/10/24 10:07:30;;;;;;;15.77;9.65;;;;;;;19.70;49.26;95037.03;5018044;28;20214;-73
2023/10/24 10:09:59;;;;;;;13.85;8.80;;;;;;;19.71;48.67;95033.03;5017767;28;20274;-73
2023/10/24 10:12:27;;;;;;;13.45;9.10;;;;;;;19.75;48.94;95035.00;5016772;28;20207;-74
2023/10/24 10:15:19;;;;;;;18.52;8.60;;;;;;;19.80;48.91;95017.78;5017232;28;20195;-74
2023/10/24 10:17:53;;;;;;;17.23;9.13;;;;;;;19.82;49.00;95020.94;5017955;28;20207;-74
2023/10/24 10:20:42;;;;;;;16.95;8.55;;;;;;;19.83;49.11;95017.75;5016658;28;20197;-74
2023/10/24 10:23:47;;;;;;;16.27;8.68;;;;;;;19.88;48.97;95016.50;5017608;28;20217;-75
2023/10/24 10:26:20;;;;;;;18.50;9.52;;;;;;;19.90;48.86;95014.88;5017329;28;20198;-74
2023/10/24 10:29:01;;;;;;;14.43;7.90;;;;;;;19.93;48.73;94999.25;5017576;28;20261;-74
2023/10/24 10:32:03;;;;;;;13.95;7.13;;;;;;;19.97;49.55;95002.78;5017837;28;20191;-74
2023/10/24 10:34:37;;;;;;;12.63;6.88;;;;;;;20.01;49.06;94995.19;5017260;28;20543;-73
2023/10/24 10:37:05;;;;;;;14.10;8.07;;;;;;;20.01;48.49;94994.38;5017502;28;20203;-74
2023/10/24 10:39:32;;;;;;;14.80;6.50;;;;;;;20.01;49.25;94995.19;5016100;28;20203;-74
2023/10/24 10:42:00;;;;;;;16.50;7.07;;;;;;;20.00;49.17;94981.59;5016449;28;20611;-75
2023/10/24 10:44:47;;;;;;;19.58;7.57;;;;;;;20.02;48.76;94979.19;5016962;28;20257;-72
2023/10/24 10:47:16;;;;;;;13.82;6.90;;;;;;;20.04;48.99;94973.94;5016839;28;20273;-72
2023/10/24 10:49:46;;;;;;;12.57;7.20;;;;;;;20.07;49.39;94970.31;5016692;28;20210;-73
2023/10/24 10:52:23;;;;;;;12.18;7.07;;;;;;;20.12;49.33;94967.06;5017083;28;20198;-70
2023/10/24 10:54:55;;;;;;;13.80;6.32;;;;;;;20.18;48.62;94954.19;5019719;28;20241;-75
2023/10/24 10:57:32;;;;;;;15.30;6.70;;;;;;;20.19;48.18;94961.41;5056865;28;20213;-74
2023/10/24 11:00:04;;;;;;;14.85;6.82;;;;;;;20.22;48.58;94949.34;5039681;28;20205;-75
2023/10/24 11:03:00;;;;;;;10.25;6.10;;;;;;;20.27;47.47;94943.28;5038879;28;20190;-76
2023/10/24 11:05:52;;;;;;;15.50;7.30;;;;;;;20.32;47.95;94944.81;5043584;28;20263;-74
2023/10/24 11:08:23;;;;;;;13.23;6.00;;;;;;;20.33;48.02;94943.59;5039790;28;20681;-75
2023/10/24 11:10:54;;;;;;;13.85;6.95;;;;;;;20.33;47.80;94936.00;5057667;28;20190;-71
2023/10/24 11:13:36;;;;;;;15.93;7.00;;;;;;;20.36;47.27;94931.56;5056669;28;20182;-71
2023/10/24 11:16:03;;;;;;;15.73;7.90;;;;;;;20.37;47.31;94930.34;5055990;28;20641;-72
2023/10/24 11:18:32;;;;;;;13.15;7.15;;;;;;;20.40;47.47;94915.50;5056282;28;20190;-71
2023/10/24 11:21:01;;;;;;;20.50;7.28;;;;;;;20.41;47.27;94914.31;5056295;28;20198;-71
2023/10/24 11:23:29;;;;;;;14.38;7.15;;;;;;;20.47;46.99;94903.41;5055953;28;20636;-72
2023/10/24 11:25:56;;;;;;;12.18;7.05;;;;;;;20.50;46.36;94908.22;5056032;28;20190;-72
2023/10/24 11:28:24;;;;;;;14.98;8.02;;;;;;;20.49;46.94;94915.00;5056204;28;20186;-71
2023/10/24 11:30:51;;;;;;;12.93;6.38;;;;;;;20.49;46.68;94909.41;5056153;28;20184;-72
2023/10/24 11:33:20;;;;;;;16.33;6.85;;;;;;;20.49;46.90;94906.59;5056095;28;20190;-71